Time;durP1;ratioP1;P1;durP2;ratioP2;P2;SDS_P1;SDS_P2;PMS_P1;PMS_P2;Temp;Humidity;BMP_temperature;BMP_pressure;BME280_temperature;BME280_humidity;BME280_pressure;Samples;Min_cycle;Max_cycle;Signal;HPM_P1;HPM_P2
2023/11/13 00:01:13;;;;;;;27.00;22.00;;;4.40;99.90;;;;;;5035146;28;21056;-73
2023/11/13 00:03:41;;;;;;;23.90;20.03;;;4.40;99.90;;;;;;5036591;28;20933;-73
2023/11/13 00:06:10;;;;;;;23.73;19.70;;;4.40;99.90;;;;;;5036365;28;20442;-73
2023/11/13 00:08:38;;;;;;;25.73;20.90;;;4.40;99.90;;;;;;5036382;28;20521;-73
2023/11/13 00:11:07;;;;;;;22.80;19.63;;;4.40;99.90;;;;;;5034895;28;20549;-73
2023/11/13 00:13:36;;;;;;;29.73;21.20;;;4.40;99.90;;;;;;5036235;28;20937;-73
2023/11/13 00:16:05;;;;;;;25.90;20.67;;;4.40;99.90;;;;;;5036736;28;20439;-73
2023/11/13 00:18:33;;;;;;;26.70;21.70;;;4.40;99.90;;;;;;5036523;28;20438;-73
2023/11/13 00:21:01;;;;;;;27.83;22.30;;;4.40;99.90;;;;;;5036131;28;20791;-73
2023/11/13 00:23:29;;;;;;;25.57;19.70;;;4.40;99.90;;;;;;5034880;28;20447;-73
2023/11/13 00:25:57;;;;;;;24.97;20.23;;;4.30;99.90;;;;;;5036066;28;20438;-73
2023/11/13 00:28:27;;;;;;;27.10;21.43;;;4.30;99.90;;;;;;5035948;28;20786;-73
2023/11/13 00:30:55;;;;;;;26.93;22.00;;;4.40;99.90;;;;;;5035969;28;20976;-73
2023/11/13 00:33:23;;;;;;;26.00;21.17;;;4.30;99.90;;;;;;5035966;28;20431;-73
2023/11/13 00:35:51;;;;;;;25.33;19.77;;;4.30;99.90;;;;;;5034509;28;20486;-73
2023/11/13 00:38:19;;;;;;;26.87;22.23;;;4.30;99.90;;;;;;5034678;28;20453;-73
2023/11/13 00:40:48;;;;;;;27.00;19.63;;;4.30;99.90;;;;;;5035874;28;21000;-73
2023/11/13 00:43:16;;;;;;;25.17;20.70;;;4.30;99.90;;;;;;5034715;28;20506;-72
2023/11/13 00:45:46;;;;;;;27.00;22.43;;;4.30;99.90;;;;;;5034427;28;20447;-73
2023/11/13 00:48:14;;;;;;;27.10;19.00;;;4.30;99.90;;;;;;5034563;28;20451;-73
2023/11/13 00:50:42;;;;;;;26.50;21.20;;;4.30;99.90;;;;;;5034172;28;20485;-73
2023/11/13 00:53:10;;;;;;;26.47;20.63;;;4.30;99.90;;;;;;5034303;28;20797;-73
2023/11/13 00:55:39;;;;;;;26.63;20.43;;;4.30;99.90;;;;;;5034419;28;20661;-73
2023/11/13 00:58:08;;;;;;;24.77;20.43;;;4.30;99.90;;;;;;5035775;28;20485;-73
2023/11/13 01:00:36;;;;;;;27.50;20.70;;;4.20;99.90;;;;;;5034159;28;20536;-73
2023/11/13 01:03:05;;;;;;;26.33;21.43;;;4.20;99.90;;;;;;5034365;28;20918;-73
2023/11/13 01:05:34;;;;;;;26.80;22.60;;;4.20;99.90;;;;;;5033998;28;20439;-73
2023/11/13 01:08:03;;;;;;;24.83;21.20;;;4.20;99.90;;;;;;5034010;28;20439;-73
2023/11/13 01:10:32;;;;;;;27.50;21.57;;;4.20;99.90;;;;;;5033747;28;20573;-73
2023/11/13 01:13:00;;;;;;;29.23;22.33;;;4.20;99.90;;;;;;5035379;28;20835;-73
2023/11/13 01:15:28;;;;;;;25.80;21.53;;;4.20;99.90;;;;;;5033848;28;20447;-72
2023/11/13 01:17:56;;;;;;;26.80;21.67;;;4.20;99.90;;;;;;5033811;28;20444;-72
2023/11/13 01:20:27;;;;;;;25.33;22.10;;;4.20;99.90;;;;;;5034908;28;20474;-73
2023/11/13 01:22:56;;;;;;;29.80;21.63;;;4.20;99.90;;;;;;5035529;28;20493;-73
2023/11/13 01:25:24;;;;;;;25.37;21.03;;;4.20;99.90;;;;;;5033845;28;20490;-73
2023/11/13 01:27:53;;;;;;;29.20;22.90;;;4.20;99.90;;;;;;5034818;28;20438;-73
2023/11/13 01:30:21;;;;;;;24.67;20.07;;;4.20;99.90;;;;;;5034642;28;20475;-73
2023/11/13 01:32:49;;;;;;;25.17;21.33;;;4.20;99.90;;;;;;5034815;28;20474;-73
2023/11/13 01:35:17;;;;;;;27.90;22.70;;;4.20;99.90;;;;;;5033520;28;20521;-72
2023/11/13 01:37:48;;;;;;;29.83;21.90;;;4.20;99.90;;;;;;5034941;28;20450;-73
2023/11/13 01:40:16;;;;;;;27.97;21.63;;;4.20;99.90;;;;;;5033446;28;20521;-73
2023/11/13 01:42:44;;;;;;;25.93;21.23;;;4.20;99.90;;;;;;5033273;28;20960;-73
2023/11/13 01:45:12;;;;;;;24.67;16.57;;;4.10;99.90;;;;;;5033348;28;20448;-73
2023/11/13 01:47:41;;;;;;;24.97;21.00;;;4.10;99.90;;;;;;5034176;28;20526;-73
2023/11/13 01:50:10;;;;;;;23.23;20.60;;;4.10;99.90;;;;;;5033018;28;20474;-73
2023/11/13 01:52:39;;;;;;;24.17;21.20;;;4.10;99.90;;;;;;5034468;28;20442;-73
2023/11/13 01:55:10;;;;;;;25.83;20.20;;;4.10;99.90;;;;;;5033150;28;20513;-73
2023/11/13 01:57:43;;;;;;;25.63;21.63;;;4.10;99.90;;;;;;5034346;28;20790;-73
2023/11/13 02:00:12;;;;;;;24.53;20.40;;;4.10;99.90;;;;;;5033149;28;20478;-73
2023/11/13 02:02:40;;;;;;;25.60;22.53;;;4.10;99.90;;;;;;5034486;28;20471;-73
2023/11/13 02:05:09;;;;;;;24.97;21.60;;;4.10;99.90;;;;;;5034079;28;20512;-73
2023/11/13 02:07:40;;;;;;;24.53;20.63;;;4.10;99.90;;;;;;5034171;28;20940;-73
2023/11/13 02:10:10;;;;;;;28.70;21.90;;;4.20;99.90;;;;;;5032979;28;20471;-73
2023/11/13 02:12:39;;;;;;;28.30;20.13;;;4.10;99.90;;;;;;5032797;28;20431;-73
2023/11/13 02:15:08;;;;;;;25.27;20.90;;;4.20;99.90;;;;;;5032665;28;20455;-73
2023/11/13 02:17:36;;;;;;;25.50;21.63;;;4.10;99.90;;;;;;5032625;28;20446;-72
2023/11/13 02:20:05;;;;;;;23.40;20.90;;;4.20;99.90;;;;;;5033634;28;20984;-73
2023/11/13 02:22:33;;;;;;;26.80;22.70;;;4.20;99.90;;;;;;5032540;28;20446;-73
2023/11/13 02:25:03;;;;;;;24.70;21.73;;;4.20;99.90;;;;;;5032763;28;20485;-73
2023/11/13 02:27:32;;;;;;;24.13;21.53;;;4.20;99.90;;;;;;5032621;28;20443;-73
2023/11/13 02:30:00;;;;;;;25.80;22.03;;;4.20;99.90;;;;;;5032482;28;20466;-73
2023/11/13 02:32:28;;;;;;;24.93;22.43;;;4.20;99.90;;;;;;5033627;28;20569;-73
2023/11/13 02:34:56;;;;;;;26.40;21.23;;;4.20;99.90;;;;;;5033849;28;20462;-73
2023/11/13 02:37:24;;;;;;;24.37;21.37;;;4.20;99.90;;;;;;5032334;28;20458;-73
2023/11/13 02:39:52;;;;;;;24.80;21.70;;;4.20;99.90;;;;;;5032485;28;20517;-73
2023/11/13 02:42:22;;;;;;;30.47;22.23;;;4.20;99.90;;;;;;5032301;28;20505;-73
2023/11/13 02:44:50;;;;;;;23.60;19.80;;;4.20;99.90;;;;;;5032479;28;20486;-73
2023/11/13 02:47:19;;;;;;;24.50;20.83;;;4.30;99.90;;;;;;5033533;28;20522;-73
2023/11/13 02:49:47;;;;;;;23.07;20.60;;;4.20;99.90;;;;;;5032172;28;20532;-73
2023/11/13 02:52:15;;;;;;;25.80;22.73;;;4.30;99.90;;;;;;5032143;28;20481;-73
2023/11/13 02:54:44;;;;;;;24.33;21.73;;;4.30;99.90;;;;;;5033655;28;20434;-72
2023/11/13 02:57:12;;;;;;;24.67;20.80;;;4.20;99.90;;;;;;5032163;28;20538;-73
2023/11/13 02:59:42;;;;;;;22.70;20.23;;;4.30;99.90;;;;;;5032447;28;20804;-72
2023/11/13 03:02:10;;;;;;;24.27;21.63;;;4.30;99.90;;;;;;5033409;28;20435;-72
2023/11/13 03:04:38;;;;;;;23.83;21.30;;;4.30;99.90;;;;;;5033621;28;20513;-73
2023/11/13 03:07:06;;;;;;;24.27;19.07;;;4.30;99.90;;;;;;5032307;28;20451;-73
2023/11/13 03:09:34;;;;;;;22.27;18.83;;;4.20;99.90;;;;;;5032001;28;20506;-73
2023/11/13 03:12:03;;;;;;;22.90;20.20;;;4.30;99.90;;;;;;5032262;28;20894;-73
2023/11/13 03:14:31;;;;;;;20.63;18.47;;;4.20;99.90;;;;;;5032073;28;20443;-73
2023/11/13 03:17:00;;;;;;;22.60;19.80;;;4.20;99.90;;;;;;5031972;28;20940;-73
2023/11/13 03:19:28;;;;;;;21.80;19.43;;;4.20;99.90;;;;;;5031966;28;20454;-73
2023/11/13 03:21:57;;;;;;;22.77;18.30;;;4.20;99.90;;;;;;5031855;28;20538;-72
2023/11/13 03:24:25;;;;;;;20.23;17.97;;;4.20;99.90;;;;;;5031884;28;20504;-73
2023/11/13 03:26:54;;;;;;;20.63;18.53;;;4.20;99.90;;;;;;5032174;28;20510;-73
2023/11/13 03:29:22;;;;;;;23.17;19.30;;;4.20;99.90;;;;;;5032038;28;20806;-73
2023/11/13 03:31:50;;;;;;;21.80;19.47;;;4.20;99.90;;;;;;5033095;28;20466;-73
2023/11/13 03:34:20;;;;;;;20.37;17.93;;;4.20;99.90;;;;;;5031979;28;20451;-73
2023/11/13 03:36:48;;;;;;;23.47;19.57;;;4.20;99.90;;;;;;5033157;28;20443;-73
2023/11/13 03:39:17;;;;;;;24.63;17.73;;;4.20;99.90;;;;;;5033300;28;20454;-73
2023/11/13 03:41:45;;;;;;;25.43;18.27;;;4.20;99.90;;;;;;5033303;28;20457;-73
2023/11/13 03:44:14;;;;;;;22.03;19.27;;;4.20;99.90;;;;;;5032016;28;20454;-73
2023/11/13 03:46:42;;;;;;;19.73;17.63;;;4.20;99.90;;;;;;5031778;28;20539;-73
2023/11/13 03:49:10;;;;;;;22.80;18.70;;;4.20;99.90;;;;;;5031693;28;20451;-73
2023/11/13 03:51:39;;;;;;;19.57;17.50;;;4.20;99.90;;;;;;5031691;28;20891;-73
2023/11/13 03:54:08;;;;;;;20.70;18.70;;;4.20;99.90;;;;;;5031604;28;20477;-73
2023/11/13 03:56:36;;;;;;;19.47;16.50;;;4.20;99.90;;;;;;5032889;28;20446;-73
2023/11/13 03:59:04;;;;;;;18.60;16.30;;;4.10;99.90;;;;;;5031501;28;20953;-73
2023/11/13 04:01:32;;;;;;;20.67;17.37;;;4.10;99.90;;;;;;5032718;28;21070;-73
2023/11/13 04:04:00;;;;;;;19.80;16.37;;;4.10;99.90;;;;;;5032867;28;20482;-72
2023/11/13 04:06:29;;;;;;;21.23;18.37;;;4.10;99.90;;;;;;5031520;28;20447;-73
2023/11/13 04:08:58;;;;;;;19.77;17.67;;;4.10;99.90;;;;;;5031581;28;20446;-73
2023/11/13 04:11:26;;;;;;;18.80;16.77;;;4.10;99.90;;;;;;5033024;28;20471;-73
2023/11/13 04:13:56;;;;;;;18.20;16.07;;;4.00;99.90;;;;;;5035931;28;20481;-73
2023/11/13 04:16:24;;;;;;;20.67;17.33;;;4.00;99.90;;;;;;5035003;28;20447;-73
2023/11/13 04:18:53;;;;;;;24.37;20.43;;;4.00;99.90;;;;;;5036194;28;20457;-73
2023/11/13 04:21:21;;;;;;;21.43;17.97;;;4.00;99.90;;;;;;5036296;28;20462;-73
2023/11/13 04:23:49;;;;;;;21.80;18.20;;;4.00;99.90;;;;;;5034923;28;20445;-73
2023/11/13 04:26:18;;;;;;;21.90;18.37;;;4.00;99.90;;;;;;5036129;28;20438;-73
2023/11/13 04:28:46;;;;;;;26.00;19.80;;;4.00;99.90;;;;;;5036141;28;20431;-73
2023/11/13 04:31:18;;;;;;;25.97;20.00;;;3.90;99.90;;;;;;5036090;28;21045;-72
2023/11/13 04:33:48;;;;;;;18.73;16.73;;;3.90;99.90;;;;;;5035959;28;20455;-73
2023/11/13 04:36:16;;;;;;;19.17;16.63;;;3.90;99.90;;;;;;5034599;28;21006;-73
2023/11/13 04:38:44;;;;;;;21.37;17.83;;;3.90;99.90;;;;;;5036011;28;20450;-73
2023/11/13 04:41:15;;;;;;;18.83;16.83;;;3.90;99.90;;;;;;5034788;28;20872;-73
2023/11/13 04:43:45;;;;;;;23.00;18.20;;;3.90;99.90;;;;;;5034686;28;20447;-73
2023/11/13 04:46:14;;;;;;;18.63;16.60;;;3.80;99.90;;;;;;5035863;28;20435;-73
2023/11/13 04:48:42;;;;;;;19.27;15.80;;;3.80;99.90;;;;;;5034560;28;20443;-73
2023/11/13 04:51:10;;;;;;;19.93;15.83;;;3.80;99.90;;;;;;5036282;28;20550;-73
2023/11/13 04:53:39;;;;;;;22.07;17.20;;;3.80;99.90;;;;;;5034306;28;20466;-73
2023/11/13 04:56:10;;;;;;;21.90;19.70;;;3.80;99.90;;;;;;5035815;28;20439;-73
2023/11/13 04:58:38;;;;;;;24.10;20.23;;;3.70;99.90;;;;;;5035824;28;20419;-73
2023/11/13 05:01:08;;;;;;;21.43;19.20;;;3.70;99.90;;;;;;5035425;28;20479;-73
2023/11/13 05:03:36;;;;;;;20.80;18.60;;;3.70;99.90;;;;;;5034125;28;20505;-73
2023/11/13 05:06:05;;;;;;;19.43;17.30;;;3.70;99.90;;;;;;5035400;28;20439;-73
2023/11/13 05:08:33;;;;;;;17.50;15.57;;;3.70;99.90;;;;;;5035323;28;21019;-73
2023/11/13 05:11:02;;;;;;;21.30;16.70;;;3.70;99.90;;;;;;5035286;28;20560;-73
2023/11/13 05:13:30;;;;;;;19.20;16.17;;;3.60;99.90;;;;;;5035170;28;20467;-72
2023/11/13 05:15:58;;;;;;;16.03;14.30;;;3.60;99.90;;;;;;5035181;28;20443;-72
2023/11/13 05:18:28;;;;;;;19.47;15.20;;;3.60;99.90;;;;;;5035310;28;20796;-73
2023/11/13 05:20:56;;;;;;;17.90;15.30;;;3.60;99.90;;;;;;5033822;28;20494;-73
2023/11/13 05:23:26;;;;;;;16.83;14.60;;;3.60;99.90;;;;;;5032951;28;20451;-73
2023/11/13 05:25:54;;;;;;;16.60;14.53;;;3.60;99.90;;;;;;5034999;28;20446;-73
2023/11/13 05:28:22;;;;;;;20.00;14.40;;;3.60;99.90;;;;;;5035226;28;20937;-73
2023/11/13 05:30:51;;;;;;;17.73;14.33;;;3.60;99.90;;;;;;5033510;28;20471;-73
2023/11/13 05:33:20;;;;;;;18.07;14.83;;;3.60;99.90;;;;;;5035008;28;20506;-72
2023/11/13 05:35:49;;;;;;;15.67;14.03;;;3.60;99.90;;;;;;5033765;28;20454;-72
2023/11/13 05:38:17;;;;;;;15.90;14.20;;;3.60;99.90;;;;;;5033479;28;20949;-73
2023/11/13 05:40:45;;;;;;;18.07;14.60;;;3.50;99.90;;;;;;5034779;28;20545;-73
2023/11/13 05:43:14;;;;;;;16.97;13.23;;;3.50;99.90;;;;;;5034691;28;20521;-73
2023/11/13 05:45:42;;;;;;;18.33;13.73;;;3.50;99.90;;;;;;5034677;28;20525;-73
2023/11/13 05:48:11;;;;;;;15.37;13.77;;;3.50;99.90;;;;;;5034512;28;20781;-73
2023/11/13 05:50:39;;;;;;;14.20;12.70;;;3.50;99.90;;;;;;5035217;28;20461;-73
2023/11/13 05:53:09;;;;;;;14.80;13.27;;;3.50;99.90;;;;;;5034400;28;20484;-73
2023/11/13 05:55:38;;;;;;;15.53;13.30;;;3.50;99.90;;;;;;5034408;28;20434;-73
2023/11/13 05:58:06;;;;;;;16.67;13.33;;;3.40;99.90;;;;;;5033087;28;21014;-72
2023/11/13 06:00:35;;;;;;;16.27;12.70;;;3.40;99.90;;;;;;5034479;28;20497;-73
2023/11/13 06:03:03;;;;;;;16.13;14.33;;;3.40;99.90;;;;;;5034352;28;20533;-73
2023/11/13 06:05:31;;;;;;;14.63;12.63;;;3.40;99.90;;;;;;5034290;28;20936;-73
2023/11/13 06:07:59;;;;;;;16.70;13.53;;;3.40;99.90;;;;;;5032906;28;20827;-73
2023/11/13 06:10:29;;;;;;;15.53;13.73;;;3.40;99.90;;;;;;5034343;28;20545;-73
2023/11/13 06:12:57;;;;;;;15.27;12.70;;;3.40;99.90;;;;;;5034559;28;20469;-73
2023/11/13 06:15:25;;;;;;;13.90;12.50;;;3.40;99.90;;;;;;5034204;28;20478;-73
2023/11/13 06:17:54;;;;;;;15.90;13.57;;;3.40;99.90;;;;;;5034180;28;20469;-73
2023/11/13 06:20:22;;;;;;;15.87;12.40;;;3.40;99.90;;;;;;5032815;28;20509;-72
2023/11/13 06:22:50;;;;;;;14.40;11.70;;;3.40;99.90;;;;;;5034358;28;20537;-73
2023/11/13 06:25:18;;;;;;;13.20;11.20;;;3.40;99.90;;;;;;5034358;28;20462;-72
2023/11/13 06:27:47;;;;;;;14.43;11.40;;;3.40;99.90;;;;;;5034357;28;20492;-72
2023/11/13 06:30:16;;;;;;;13.80;12.00;;;3.40;99.90;;;;;;5034089;28;20462;-73
2023/11/13 06:32:47;;;;;;;15.87;13.10;;;3.40;99.90;;;;;;5032496;28;20533;-73
2023/11/13 06:35:16;;;;;;;15.40;12.00;;;3.40;99.90;;;;;;5033852;28;20411;-72
2023/11/13 06:37:44;;;;;;;15.00;12.40;;;3.40;99.90;;;;;;5034041;28;21007;-72
2023/11/13 06:40:16;;;;;;;15.80;12.00;;;3.40;99.90;;;;;;5033870;28;21061;-72
2023/11/13 06:42:47;;;;;;;14.90;12.57;;;3.40;99.90;;;;;;5034163;28;20430;-72
2023/11/13 06:45:16;;;;;;;12.37;11.03;;;3.40;99.90;;;;;;5032657;28;20516;-72
2023/11/13 06:47:50;;;;;;;13.70;12.10;;;3.30;99.90;;;;;;5033811;28;20565;-73
2023/11/13 06:50:19;;;;;;;14.33;11.93;;;3.30;99.90;;;;;;5034121;28;20800;-73
2023/11/13 06:52:47;;;;;;;15.87;12.23;;;3.30;99.90;;;;;;5033864;28;20513;-73
2023/11/13 06:55:16;;;;;;;14.67;12.50;;;3.30;99.90;;;;;;5034252;28;20927;-73
2023/11/13 06:57:44;;;;;;;12.70;11.40;;;3.40;99.90;;;;;;5034276;28;20439;-72
2023/11/13 07:00:16;;;;;;;14.03;11.00;;;3.40;99.90;;;;;;5032382;28;20471;-72
2023/11/13 07:02:47;;;;;;;15.43;13.50;;;3.30;99.90;;;;;;5032533;28;20438;-72
2023/11/13 07:05:16;;;;;;;13.47;11.97;;;3.30;99.90;;;;;;5034024;28;20900;-72
2023/11/13 07:07:44;;;;;;;15.17;13.57;;;3.30;99.90;;;;;;5032486;28;20454;-72
2023/11/13 07:10:12;;;;;;;15.40;12.30;;;3.30;99.90;;;;;;5034000;28;20509;-72
2023/11/13 07:12:41;;;;;;;14.50;12.60;;;3.30;99.90;;;;;;5033663;28;20453;-72
2023/11/13 07:15:11;;;;;;;14.40;12.90;;;3.30;99.90;;;;;;5032414;28;20474;-72
2023/11/13 07:17:41;;;;;;;14.53;13.00;;;3.40;99.90;;;;;;5033697;28;20419;-72
2023/11/13 07:20:12;;;;;;;13.47;12.07;;;3.40;99.90;;;;;;5032290;28;20549;-72
2023/11/13 07:22:40;;;;;;;19.10;13.53;;;3.40;99.90;;;;;;5033638;28;20419;-72
2023/11/13 07:25:09;;;;;;;15.60;13.83;;;3.40;99.90;;;;;;5033673;28;20427;-72
2023/11/13 07:27:36;;;;;;;17.57;14.03;;;3.40;99.90;;;;;;5033435;28;20446;-72
2023/11/13 07:30:07;;;;;;;16.37;14.60;;;3.40;99.90;;;;;;5033258;28;20462;-72
2023/11/13 07:32:35;;;;;;;16.30;12.80;;;3.40;99.90;;;;;;5033492;28;20469;-73
2023/11/13 07:35:05;;;;;;;14.90;13.40;;;3.40;99.90;;;;;;5033443;28;20463;-72
2023/11/13 07:37:34;;;;;;;14.23;12.83;;;3.40;99.90;;;;;;5033207;28;20439;-73
2023/11/13 07:40:02;;;;;;;13.20;11.87;;;3.40;99.90;;;;;;5033459;28;20458;-72
2023/11/13 07:42:32;;;;;;;14.73;12.33;;;3.50;99.90;;;;;;5033674;28;20435;-73
2023/11/13 07:45:03;;;;;;;13.77;11.53;;;3.50;99.90;;;;;;5033225;28;20936;-72
2023/11/13 07:47:31;;;;;;;14.07;12.67;;;3.50;99.90;;;;;;5037278;28;20502;-72
2023/11/13 07:49:59;;;;;;;14.50;12.97;;;3.50;99.90;;;;;;5037158;28;20490;-72
2023/11/13 07:52:30;;;;;;;15.13;13.23;;;3.60;99.90;;;;;;5037451;28;20474;-72
2023/11/13 07:55:00;;;;;;;13.50;12.10;;;3.60;99.90;;;;;;5037117;28;20465;-72
2023/11/13 07:57:28;;;;;;;14.27;12.57;;;3.60;99.90;;;;;;5037343;28;20442;-72
2023/11/13 07:59:56;;;;;;;14.17;12.00;;;3.60;99.90;;;;;;5037404;28;20867;-72
2023/11/13 08:02:25;;;;;;;16.10;12.90;;;3.60;99.90;;;;;;5035914;28;20883;-72
2023/11/13 08:04:55;;;;;;;16.93;14.27;;;3.60;99.90;;;;;;5035712;28;20446;-73
2023/11/13 08:07:23;;;;;;;13.03;11.73;;;3.70;99.90;;;;;;5037326;28;20431;-72
2023/11/13 08:09:54;;;;;;;14.40;11.37;;;3.70;99.90;;;;;;5036994;28;20483;-72
2023/11/13 08:12:23;;;;;;;14.67;10.77;;;3.70;99.90;;;;;;5036851;28;20431;-72
2023/11/13 08:14:51;;;;;;;14.33;12.33;;;3.70;99.90;;;;;;5036588;28;20466;-72
2023/11/13 08:17:19;;;;;;;18.97;15.13;;;3.80;99.90;;;;;;5036839;28;20512;-72
2023/11/13 08:19:47;;;;;;;14.63;12.30;;;3.80;99.90;;;;;;5036268;28;20918;-73
2023/11/13 08:22:16;;;;;;;15.50;13.00;;;3.90;99.90;;;;;;5035119;28;20542;-73
2023/11/13 08:24:44;;;;;;;14.47;11.30;;;3.90;99.90;;;;;;5035053;28;20442;-72
2023/11/13 08:27:15;;;;;;;12.30;10.93;;;3.90;99.90;;;;;;5036657;28;20447;-73
2023/11/13 08:29:44;;;;;;;14.10;10.90;;;3.90;99.90;;;;;;5034948;28;20449;-73
2023/11/13 08:32:12;;;;;;;14.00;12.53;;;4.00;99.90;;;;;;5036207;28;20458;-73
2023/11/13 08:34:41;;;;;;;13.53;11.37;;;4.00;99.90;;;;;;5036092;28;20495;-73
2023/11/13 08:37:11;;;;;;;12.50;11.03;;;4.00;99.90;;;;;;5036117;28;20431;-72
2023/11/13 08:39:39;;;;;;;12.70;11.33;;;4.10;99.90;;;;;;5036223;28;20454;-73
2023/11/13 08:42:08;;;;;;;13.00;10.60;;;4.10;99.90;;;;;;5036113;28;20435;-73
2023/11/13 08:44:37;;;;;;;15.13;11.80;;;4.10;99.90;;;;;;5035946;28;20442;-73
2023/11/13 08:47:05;;;;;;;13.27;11.30;;;4.20;99.90;;;;;;5035914;28;20502;-73
2023/11/13 08:49:34;;;;;;;12.97;10.70;;;4.20;99.90;;;;;;5035969;28;20814;-73
2023/11/13 08:52:02;;;;;;;14.63;11.87;;;4.30;99.90;;;;;;5035984;28;20524;-73
2023/11/13 08:54:32;;;;;;;12.97;11.67;;;4.30;99.90;;;;;;5035819;28;20964;-73
2023/11/13 08:57:04;;;;;;;15.60;11.90;;;4.30;99.90;;;;;;5033857;28;20451;-73
2023/11/13 08:59:32;;;;;;;12.47;10.97;;;4.40;99.90;;;;;;5034317;28;20444;-73
2023/11/13 09:02:05;;;;;;;13.27;11.90;;;4.50;99.90;;;;;;5036023;28;20439;-73
2023/11/13 09:04:34;;;;;;;17.37;13.67;;;4.50;99.90;;;;;;5035910;28;20886;-73
2023/11/13 09:07:07;;;;;;;14.17;12.10;;;4.60;99.90;;;;;;5035706;28;20445;-73
2023/11/13 09:09:37;;;;;;;14.47;11.60;;;4.60;99.90;;;;;;5036151;28;20510;-73
2023/11/13 09:12:07;;;;;;;14.50;11.10;;;4.60;99.90;;;;;;5035674;28;20479;-73
2023/11/13 09:14:35;;;;;;;15.47;12.53;;;4.70;99.90;;;;;;5035526;28;20471;-73
2023/11/13 09:17:12;;;;;;;17.63;12.30;;;4.70;99.90;;;;;;5034449;28;20474;-73
2023/11/13 09:19:41;;;;;;;16.00;13.40;;;4.80;99.90;;;;;;5035363;28;20516;-73
2023/11/13 09:22:10;;;;;;;15.37;12.33;;;4.80;99.90;;;;;;5035428;28;20940;-73
2023/11/13 09:24:39;;;;;;;13.90;12.30;;;4.80;99.90;;;;;;5035494;28;20435;-73
2023/11/13 09:27:09;;;;;;;14.67;12.80;;;4.90;99.90;;;;;;5035824;28;20505;-73
2023/11/13 09:29:38;;;;;;;13.53;12.13;;;5.00;99.90;;;;;;5035401;28;20802;-73
2023/11/13 09:32:08;;;;;;;15.20;13.10;;;5.00;99.90;;;;;;5035581;28;20443;-73
2023/11/13 09:34:37;;;;;;;14.40;12.27;;;5.00;99.90;;;;;;5033993;28;21035;-73
2023/11/13 09:37:05;;;;;;;15.50;13.20;;;5.10;99.90;;;;;;5034030;28;20462;-73
2023/11/13 09:39:38;;;;;;;14.87;12.50;;;5.20;99.90;;;;;;5034288;28;20451;-73
2023/11/13 09:42:14;;;;;;;16.27;14.67;;;5.30;99.90;;;;;;5035621;28;20434;-72
2023/11/13 09:44:42;;;;;;;14.90;12.80;;;5.30;99.90;;;;;;5035516;28;20477;-73
2023/11/13 09:47:29;;;;;;;18.40;16.00;;;5.50;99.90;;;;;;5035008;28;20829;-73
2023/11/13 09:50:03;;;;;;;19.27;13.23;;;5.50;99.90;;;;;;5034792;28;20466;-73
2023/11/13 09:52:33;;;;;;;14.80;13.13;;;5.60;99.90;;;;;;5033581;28;20439;-73
2023/11/13 09:55:03;;;;;;;16.83;14.97;;;5.60;99.90;;;;;;5033533;28;20471;-73
2023/11/13 09:57:31;;;;;;;17.67;14.87;;;5.70;99.90;;;;;;5034725;28;20489;-73
2023/11/13 10:00:00;;;;;;;17.50;15.70;;;5.70;99.90;;;;;;5033310;28;20899;-73
2023/11/13 10:02:41;;;;;;;16.37;14.57;;;5.80;99.90;;;;;;5034631;28;20434;-73
2023/11/13 10:05:12;;;;;;;17.57;15.73;;;5.90;99.90;;;;;;5035139;28;20427;-73
2023/11/13 10:07:44;;;;;;;19.60;16.40;;;5.90;99.90;;;;;;5033673;28;20964;-73
2023/11/13 10:10:17;;;;;;;16.50;14.50;;;6.00;99.90;;;;;;5034750;28;20501;-73
2023/11/13 10:12:46;;;;;;;18.50;16.37;;;6.00;99.90;;;;;;5033668;28;20445;-73
2023/11/13 10:15:14;;;;;;;18.80;17.00;;;6.10;99.90;;;;;;5034575;28;21091;-73
2023/11/13 10:17:46;;;;;;;19.43;17.50;;;6.10;99.90;;;;;;5035385;28;20502;-73
2023/11/13 10:20:17;;;;;;;18.93;16.77;;;6.20;99.90;;;;;;5033347;28;20565;-73
2023/11/13 10:22:47;;;;;;;19.37;17.30;;;6.20;99.90;;;;;;5035422;28;20836;-73
2023/11/13 10:25:17;;;;;;;20.80;18.33;;;6.30;99.90;;;;;;5034826;28;20451;-73
2023/11/13 10:28:00;;;;;;;19.40;17.33;;;6.30;99.90;;;;;;5034596;28;20433;-73
2023/11/13 10:30:29;;;;;;;21.27;18.57;;;6.40;99.90;;;;;;5033683;28;20470;-73
2023/11/13 10:33:15;;;;;;;22.60;19.77;;;6.40;99.90;;;;;;5035114;28;20476;-73
2023/11/13 10:35:45;;;;;;;19.47;17.47;;;6.40;99.90;;;;;;5034925;28;21014;-73
2023/11/13 10:38:14;;;;;;;23.17;19.50;;;6.50;99.90;;;;;;5035365;28;20443;-73
2023/11/13 10:40:44;;;;;;;22.33;19.27;;;6.50;99.90;;;;;;5033719;28;20518;-73
2023/11/13 10:43:12;;;;;;;22.87;19.20;;;6.60;99.90;;;;;;5033557;28;20449;-73
2023/11/13 10:45:47;;;;;;;23.97;21.40;;;6.60;99.90;;;;;;5034726;28;20444;-73
2023/11/13 10:48:17;;;;;;;22.03;19.70;;;6.60;99.90;;;;;;5033735;28;20453;-73
2023/11/13 10:50:49;;;;;;;21.57;19.30;;;6.70;99.90;;;;;;5033952;28;20479;-73
2023/11/13 10:53:18;;;;;;;22.00;19.60;;;6.70;99.90;;;;;;5034912;28;20435;-73
2023/11/13 10:55:47;;;;;;;24.70;20.40;;;6.70;99.90;;;;;;5034860;28;20467;-73
2023/11/13 10:58:16;;;;;;;18.50;14.60;;;6.70;99.90;;;;;;5034763;28;20805;-73
2023/11/13 11:00:44;;;;;;;26.33;21.77;;;6.70;99.90;;;;;;5033815;28;20561;-73
2023/11/13 11:03:17;;;;;;;22.97;20.57;;;6.80;99.90;;;;;;5033798;28;20499;-73
2023/11/13 11:05:49;;;;;;;21.37;19.17;;;6.80;99.90;;;;;;5033868;28;20451;-73
2023/11/13 11:08:19;;;;;;;22.47;20.10;;;6.80;99.90;;;;;;5035445;28;20426;-73
2023/11/13 11:10:49;;;;;;;25.67;21.40;;;6.80;99.90;;;;;;5035263;28;20517;-72
2023/11/13 11:13:20;;;;;;;25.60;21.20;;;6.80;99.90;;;;;;5035401;28;20861;-72
2023/11/13 11:16:30;;;;;;;30.10;22.33;;;6.80;99.90;;;;;;5033668;28;20519;-73
2023/11/13 11:19:07;;;;;;;24.63;19.80;;;6.80;99.90;;;;;;5034654;28;20986;-72
2023/11/13 11:21:45;;;;;;;26.70;21.27;;;6.90;99.90;;;;;;5037105;28;20824;-72
2023/11/13 11:24:24;;;;;;;30.93;22.03;;;6.80;99.90;;;;;;5038649;28;20754;-72
2023/11/13 11:26:54;;;;;;;24.30;21.30;;;6.90;99.90;;;;;;5038956;28;20459;-72
2023/11/13 11:29:33;;;;;;;25.17;20.17;;;6.90;99.90;;;;;;5038853;28;20457;-72
2023/11/13 11:32:10;;;;;;;27.97;21.73;;;6.90;99.90;;;;;;5039247;28;20426;-72
2023/11/13 11:34:41;;;;;;;25.70;22.17;;;6.90;99.90;;;;;;5038862;28;20425;-72
2023/11/13 11:37:16;;;;;;;24.07;21.57;;;6.90;99.90;;;;;;5038844;28;20458;-72
2023/11/13 11:39:49;;;;;;;24.43;21.83;;;6.90;99.90;;;;;;5038713;28;20419;-72
2023/11/13 11:42:19;;;;;;;23.70;21.10;;;6.90;99.90;;;;;;5037278;28;20453;-72
2023/11/13 11:44:59;;;;;;;25.73;21.30;;;6.90;99.90;;;;;;5038903;28;20430;-72
2023/11/13 11:47:28;;;;;;;26.83;21.23;;;6.90;99.90;;;;;;5037524;28;20441;-72
2023/11/13 11:49:58;;;;;;;25.30;20.10;;;6.90;99.90;;;;;;5038096;28;20454;-72
2023/11/13 11:52:50;;;;;;;23.40;21.03;;;6.90;99.90;;;;;;5039198;28;20868;-72
2023/11/13 11:55:20;;;;;;;22.90;20.23;;;7.00;99.90;;;;;;5038661;28;20454;-72
2023/11/13 11:57:49;;;;;;;26.40;21.90;;;7.00;99.90;;;;;;5038757;28;20467;-72
2023/11/13 12:00:20;;;;;;;23.33;20.83;;;7.00;99.90;;;;;;5038339;28;20497;-72
2023/11/13 12:02:51;;;;;;;24.23;21.63;;;7.00;99.90;;;;;;5038632;28;20903;-72
2023/11/13 12:05:21;;;;;;;21.27;19.17;;;7.00;99.90;;;;;;5038376;28;20903;-72
2023/11/13 12:07:52;;;;;;;22.47;20.10;;;7.10;99.90;;;;;;5038254;28;20441;-72
2023/11/13 12:10:21;;;;;;;24.40;20.80;;;7.10;99.90;;;;;;5038213;28;20462;-72
2023/11/13 12:12:50;;;;;;;26.77;20.90;;;7.10;99.90;;;;;;5038224;28;20440;-72
2023/11/13 12:15:19;;;;;;;25.23;20.80;;;7.10;99.90;;;;;;5037016;28;20538;-72
2023/11/13 12:17:47;;;;;;;25.27;22.47;;;7.20;99.90;;;;;;5037008;28;20465;-72
2023/11/13 12:20:15;;;;;;;23.50;20.80;;;7.20;99.90;;;;;;5038309;28;20470;-72
2023/11/13 12:22:51;;;;;;;22.70;20.30;;;7.20;99.90;;;;;;5036996;28;20494;-72
2023/11/13 12:25:20;;;;;;;21.97;18.67;;;7.20;99.90;;;;;;5037880;28;20435;-72
2023/11/13 12:27:48;;;;;;;22.53;19.87;;;7.30;99.90;;;;;;5038104;28;20430;-72
2023/11/13 12:30:19;;;;;;;25.33;18.67;;;7.30;99.90;;;;;;5038262;28;20456;-72
2023/11/13 12:32:48;;;;;;;20.63;18.43;;;7.30;99.90;;;;;;5038396;28;20908;-72
2023/11/13 12:35:17;;;;;;;25.03;20.13;;;7.30;99.90;;;;;;5037135;28;20467;-72
2023/11/13 12:37:46;;;;;;;24.37;21.30;;;7.30;99.90;;;;;;5036577;28;20460;-72
2023/11/13 12:40:17;;;;;;;23.70;19.93;;;7.30;99.90;;;;;;5036955;28;20530;-72
2023/11/13 12:42:45;;;;;;;23.40;20.90;;;7.30;99.90;;;;;;5037132;28;20552;-72
2023/11/13 12:45:15;;;;;;;19.53;17.53;;;7.40;99.90;;;;;;5036712;28;20469;-72
2023/11/13 12:47:45;;;;;;;21.60;19.33;;;7.40;99.90;;;;;;5035859;28;20434;-72